الصفحة الرئيسية
METAR-TAF:

METAR-TAF

مطار :

ميكولايف, أوكرانيا

دائرة عرض: 47-03-29N, خط طول: 031-55-15E, ارتفاع: 56 متر

مراقبة الطقس الحالي

تاريخ ووقت الإصدار 4ساعات و 47 دقيقة قبل الساعة 14:00UTC
ريح 6 عقدة من الغرب/الشمال الغربي, الاتجاه يتراوح بين الجنوب الغربي و الشمال
درجة الحرارة 31°درجة مئوية
الرطوبة 36%
ضغط 1012 hPa
الرؤية 10 كم أو أكثر
الغيوم لا تقل 1500 م ولا وجود لمزنة ركامية السحاب الأسود

METAR: UKON 021400Z 29003MPS 230V350 CAVOK 31/14 Q1012 R04/090075 NOSIG

زمن: 21:47 (18:47 UTC)

توقعات

تاريخ ووقت الإصدار 7ساعات و 45 دقيقة قبل الساعة 11:02UTC
التوقعات صالحة من02 الساعة 12 UTC إلى 02 الساعة 21 UTC
ريح 6 عقدة من الشمال الشرقي
الرؤية 10 كم أو أكثر
غيوم متفرقة على ارتفاع 3000 قدم, مزنة ركامية.
نظرية الاحتمالات 40% :
مؤقت
من 02 الساعة 12 UTC إلى 02 الساعة 18 UTC
ريح 19 عقدةمن اتجاهات متغيرة تتزايد حتى 37 عقدة
الرؤية: 1000 متر
غيوم مفككة على ارتفاع 300 قدم
غيوم مفككة على ارتفاع 1500 قدم, مزنة ركامية.
عاصفة رعدية, مطر, برَد, عاصفة مفاجئة

TAF: UKON 021102Z 0212/0221 05003MPS 9999 SCT030CB TX32/0213Z TN24/0221Z PROB40 TEMPO 0212/0218 VRB10G19MPS 1000 TSRAGR SQ BKN003 BKN015CB

أرصاد الطقس والتوقعات من أكثر من 4000 مطار (تقارير الطقس للمطار METAR والتنبؤ بالطقس بالمطارTAF).

المحطات المتاحة هي النقط الصفراء والحمراء على الخريطة.

حرك المؤشر فوق النقطة لمعرفة اسم المحطة.

ثم انقر لمعرفة أرصاد وتوقعات الطقس.

لتغيير الخارطة: اضغط على الأزرار الخضراء مع رمز الصليب الأسود للتكبير. على الزر الأخضر مع شرطة للتصغير، أو على الأسهم الخضراء للخرائط المجاورة.


METAR-TAF: